Terminal Aerodrome Forecast
Issued by NWS

Home | Current Version | Previous Version | Text Only | Print | Product List | Glossary On
Versions: 1 2 3 4 5 6 7 8 9 10 11 12 13 14 15 16
000
FTUS42 TJSJ 011733
TAFJPS
TAF
TJPS 011733Z 0118/0218 13010G15KT P6SM VCTS FEW025CB BKN060
     FM012330 05005KT P6SM SCT060
     FM021330 13010G15KT P6SM FEW030 SCT060
      AMD NOT SKED TIL 020300=

USA.gov is the U.S. government's official web portal to all federal, state and local government web resources and services.